sensor_id;sensor_type;location;lat;lon;timestamp;P1;durP1;ratioP1;P2;durP2;ratioP2
12511;SDS011;6321;53.798;10.382;2023-06-10T00:00:48;8.73;;;6.07;;
12511;SDS011;6321;53.798;10.382;2023-06-10T00:03:15;9.17;;;6.60;;
12511;SDS011;6321;53.798;10.382;2023-06-10T00:05:42;10.67;;;6.17;;
12511;SDS011;6321;53.798;10.382;2023-06-10T00:08:08;8.40;;;5.80;;
12511;SDS011;6321;53.798;10.382;2023-06-10T00:10:36;11.77;;;5.97;;
12511;SDS011;6321;53.798;10.382;2023-06-10T00:13:02;7.10;;;5.50;;
12511;SDS011;6321;53.798;10.382;2023-06-10T00:15:29;8.97;;;5.63;;
12511;SDS011;6321;53.798;10.382;2023-06-10T00:17:55;10.87;;;5.57;;
12511;SDS011;6321;53.798;10.382;2023-06-10T00:20:21;8.13;;;5.27;;
12511;SDS011;6321;53.798;10.382;2023-06-10T00:22:49;10.63;;;5.20;;
12511;SDS011;6321;53.798;10.382;2023-06-10T00:25:15;12.43;;;5.60;;
12511;SDS011;6321;53.798;10.382;2023-06-10T00:27:41;9.00;;;4.90;;
12511;SDS011;6321;53.798;10.382;2023-06-10T00:30:07;12.77;;;4.67;;
12511;SDS011;6321;53.798;10.382;2023-06-10T00:32:33;8.53;;;5.20;;
12511;SDS011;6321;53.798;10.382;2023-06-10T00:34:59;7.40;;;4.33;;
12511;SDS011;6321;53.798;10.382;2023-06-10T00:37:25;12.30;;;4.97;;
12511;SDS011;6321;53.798;10.382;2023-06-10T00:39:51;8.37;;;4.77;;
12511;SDS011;6321;53.798;10.382;2023-06-10T00:42:17;6.97;;;4.53;;
12511;SDS011;6321;53.798;10.382;2023-06-10T00:44:44;11.90;;;4.20;;
12511;SDS011;6321;53.798;10.382;2023-06-10T00:47:10;7.83;;;4.77;;
12511;SDS011;6321;53.798;10.382;2023-06-10T00:49:36;8.67;;;3.90;;
12511;SDS011;6321;53.798;10.382;2023-06-10T00:52:02;8.20;;;4.57;;
12511;SDS011;6321;53.798;10.382;2023-06-10T00:54:29;5.97;;;4.10;;
12511;SDS011;6321;53.798;10.382;2023-06-10T00:56:55;12.40;;;5.23;;
12511;SDS011;6321;53.798;10.382;2023-06-10T00:59:22;6.70;;;3.90;;
12511;SDS011;6321;53.798;10.382;2023-06-10T01:01:50;17.03;;;4.40;;
12511;SDS011;6321;53.798;10.382;2023-06-10T01:04:17;8.00;;;4.27;;
12511;SDS011;6321;53.798;10.382;2023-06-10T01:09:13;8.07;;;3.70;;
12511;SDS011;6321;53.798;10.382;2023-06-10T01:11:46;9.50;;;4.00;;
12511;SDS011;6321;53.798;10.382;2023-06-10T01:14:13;5.47;;;3.63;;
12511;SDS011;6321;53.798;10.382;2023-06-10T01:16:39;9.00;;;4.37;;
12511;SDS011;6321;53.798;10.382;2023-06-10T01:19:06;5.97;;;3.73;;
12511;SDS011;6321;53.798;10.382;2023-06-10T01:21:32;5.67;;;3.50;;
12511;SDS011;6321;53.798;10.382;2023-06-10T01:23:58;7.27;;;3.37;;
12511;SDS011;6321;53.798;10.382;2023-06-10T01:26:26;7.03;;;4.07;;
12511;SDS011;6321;53.798;10.382;2023-06-10T01:28:54;7.60;;;4.00;;
12511;SDS011;6321;53.798;10.382;2023-06-10T01:31:38;8.20;;;3.87;;
12511;SDS011;6321;53.798;10.382;2023-06-10T01:34:07;7.10;;;4.20;;
12511;SDS011;6321;53.798;10.382;2023-06-10T01:36:34;5.17;;;3.10;;
12511;SDS011;6321;53.798;10.382;2023-06-10T01:39:01;7.00;;;3.47;;
12511;SDS011;6321;53.798;10.382;2023-06-10T01:41:27;6.60;;;3.50;;
12511;SDS011;6321;53.798;10.382;2023-06-10T01:43:54;7.43;;;3.40;;
12511;SDS011;6321;53.798;10.382;2023-06-10T01:46:20;9.53;;;4.43;;
12511;SDS011;6321;53.798;10.382;2023-06-10T01:48:47;5.60;;;3.53;;
12511;SDS011;6321;53.798;10.382;2023-06-10T01:51:13;5.93;;;3.80;;
12511;SDS011;6321;53.798;10.382;2023-06-10T01:53:38;6.83;;;3.50;;
12511;SDS011;6321;53.798;10.382;2023-06-10T01:56:04;5.73;;;3.20;;
12511;SDS011;6321;53.798;10.382;2023-06-10T01:58:30;10.87;;;3.57;;
12511;SDS011;6321;53.798;10.382;2023-06-10T02:00:56;6.30;;;3.53;;
12511;SDS011;6321;53.798;10.382;2023-06-10T02:03:22;8.93;;;3.73;;
12511;SDS011;6321;53.798;10.382;2023-06-10T02:05:48;6.17;;;3.67;;
12511;SDS011;6321;53.798;10.382;2023-06-10T02:08:14;7.87;;;3.60;;
12511;SDS011;6321;53.798;10.382;2023-06-10T02:10:40;7.87;;;3.83;;
12511;SDS011;6321;53.798;10.382;2023-06-10T02:13:06;7.77;;;3.67;;
12511;SDS011;6321;53.798;10.382;2023-06-10T02:15:32;7.83;;;3.70;;
12511;SDS011;6321;53.798;10.382;2023-06-10T02:17:59;7.53;;;3.37;;
12511;SDS011;6321;53.798;10.382;2023-06-10T02:20:25;6.17;;;3.40;;
12511;SDS011;6321;53.798;10.382;2023-06-10T02:22:51;8.60;;;3.30;;
12511;SDS011;6321;53.798;10.382;2023-06-10T02:25:17;5.60;;;3.63;;
12511;SDS011;6321;53.798;10.382;2023-06-10T02:27:43;6.23;;;3.07;;
12511;SDS011;6321;53.798;10.382;2023-06-10T02:30:09;4.10;;;3.23;;
12511;SDS011;6321;53.798;10.382;2023-06-10T02:32:36;4.10;;;2.73;;
12511;SDS011;6321;53.798;10.382;2023-06-10T02:35:02;3.27;;;2.90;;
12511;SDS011;6321;53.798;10.382;2023-06-10T02:37:28;3.57;;;3.00;;
12511;SDS011;6321;53.798;10.382;2023-06-10T02:39:53;5.00;;;2.87;;
12511;SDS011;6321;53.798;10.382;2023-06-10T02:42:19;3.83;;;3.13;;
12511;SDS011;6321;53.798;10.382;2023-06-10T02:44:45;5.83;;;3.13;;
12511;SDS011;6321;53.798;10.382;2023-06-10T02:47:11;5.17;;;3.40;;
12511;SDS011;6321;53.798;10.382;2023-06-10T02:49:37;7.53;;;3.67;;
12511;SDS011;6321;53.798;10.382;2023-06-10T02:52:03;5.07;;;2.77;;
12511;SDS011;6321;53.798;10.382;2023-06-10T02:54:29;5.37;;;3.17;;
12511;SDS011;6321;53.798;10.382;2023-06-10T02:56:55;5.07;;;3.07;;
12511;SDS011;6321;53.798;10.382;2023-06-10T02:59:21;4.10;;;3.20;;
12511;SDS011;6321;53.798;10.382;2023-06-10T03:01:47;4.47;;;3.40;;
12511;SDS011;6321;53.798;10.382;2023-06-10T03:04:13;3.60;;;3.10;;
12511;SDS011;6321;53.798;10.382;2023-06-10T03:06:39;3.83;;;3.03;;
12511;SDS011;6321;53.798;10.382;2023-06-10T03:09:06;4.97;;;3.07;;
12511;SDS011;6321;53.798;10.382;2023-06-10T03:11:32;4.73;;;3.53;;
12511;SDS011;6321;53.798;10.382;2023-06-10T03:13:58;3.87;;;2.47;;
12511;SDS011;6321;53.798;10.382;2023-06-10T03:16:24;5.37;;;3.57;;
12511;SDS011;6321;53.798;10.382;2023-06-10T03:18:52;3.23;;;2.53;;
12511;SDS011;6321;53.798;10.382;2023-06-10T03:21:18;4.67;;;3.13;;
12511;SDS011;6321;53.798;10.382;2023-06-10T03:23:44;3.80;;;2.87;;
12511;SDS011;6321;53.798;10.382;2023-06-10T03:26:10;6.03;;;3.30;;
12511;SDS011;6321;53.798;10.382;2023-06-10T03:28:37;7.80;;;3.53;;
12511;SDS011;6321;53.798;10.382;2023-06-10T03:31:03;5.80;;;3.40;;
12511;SDS011;6321;53.798;10.382;2023-06-10T03:33:29;4.87;;;3.30;;
12511;SDS011;6321;53.798;10.382;2023-06-10T03:35:56;9.73;;;4.03;;
12511;SDS011;6321;53.798;10.382;2023-06-10T03:38:22;3.50;;;3.00;;
12511;SDS011;6321;53.798;10.382;2023-06-10T03:40:48;5.97;;;3.17;;
12511;SDS011;6321;53.798;10.382;2023-06-10T03:43:14;6.07;;;3.13;;
12511;SDS011;6321;53.798;10.382;2023-06-10T03:45:39;5.53;;;3.97;;
12511;SDS011;6321;53.798;10.382;2023-06-10T03:48:06;3.90;;;3.40;;
12511;SDS011;6321;53.798;10.382;2023-06-10T03:50:33;5.90;;;3.53;;
12511;SDS011;6321;53.798;10.382;2023-06-10T03:52:59;5.30;;;3.27;;
12511;SDS011;6321;53.798;10.382;2023-06-10T03:55:24;4.10;;;3.23;;
12511;SDS011;6321;53.798;10.382;2023-06-10T03:57:51;13.37;;;4.17;;
12511;SDS011;6321;53.798;10.382;2023-06-10T04:00:17;4.27;;;3.23;;
12511;SDS011;6321;53.798;10.382;2023-06-10T04:02:44;5.33;;;3.37;;
12511;SDS011;6321;53.798;10.382;2023-06-10T04:05:17;8.30;;;4.37;;
12511;SDS011;6321;53.798;10.382;2023-06-10T04:07:43;6.47;;;3.50;;
12511;SDS011;6321;53.798;10.382;2023-06-10T04:10:10;5.03;;;4.23;;
12511;SDS011;6321;53.798;10.382;2023-06-10T04:12:36;5.13;;;3.33;;
12511;SDS011;6321;53.798;10.382;2023-06-10T04:15:03;4.53;;;3.07;;
12511;SDS011;6321;53.798;10.382;2023-06-10T04:17:29;5.50;;;3.03;;
12511;SDS011;6321;53.798;10.382;2023-06-10T04:19:55;5.97;;;3.23;;
12511;SDS011;6321;53.798;10.382;2023-06-10T04:22:21;7.43;;;3.77;;
12511;SDS011;6321;53.798;10.382;2023-06-10T04:24:47;10.10;;;3.47;;
12511;SDS011;6321;53.798;10.382;2023-06-10T04:27:13;8.30;;;3.00;;
12511;SDS011;6321;53.798;10.382;2023-06-10T04:29:39;9.63;;;3.50;;
12511;SDS011;6321;53.798;10.382;2023-06-10T04:32:05;9.30;;;3.33;;
12511;SDS011;6321;53.798;10.382;2023-06-10T04:34:35;6.57;;;3.73;;
12511;SDS011;6321;53.798;10.382;2023-06-10T04:37:01;9.07;;;3.27;;
12511;SDS011;6321;53.798;10.382;2023-06-10T04:39:27;11.57;;;3.20;;
12511;SDS011;6321;53.798;10.382;2023-06-10T04:41:53;6.97;;;2.60;;
12511;SDS011;6321;53.798;10.382;2023-06-10T04:44:19;13.27;;;3.30;;
12511;SDS011;6321;53.798;10.382;2023-06-10T04:46:46;10.57;;;3.27;;
12511;SDS011;6321;53.798;10.382;2023-06-10T04:49:12;9.17;;;3.33;;
12511;SDS011;6321;53.798;10.382;2023-06-10T04:51:41;10.53;;;2.90;;
12511;SDS011;6321;53.798;10.382;2023-06-10T04:54:07;6.53;;;3.20;;
12511;SDS011;6321;53.798;10.382;2023-06-10T04:56:33;5.47;;;2.77;;
12511;SDS011;6321;53.798;10.382;2023-06-10T04:58:59;8.00;;;2.60;;
12511;SDS011;6321;53.798;10.382;2023-06-10T05:01:25;11.00;;;3.23;;
12511;SDS011;6321;53.798;10.382;2023-06-10T05:03:52;6.93;;;2.60;;
12511;SDS011;6321;53.798;10.382;2023-06-10T05:06:18;7.33;;;3.30;;
12511;SDS011;6321;53.798;10.382;2023-06-10T05:08:44;4.03;;;2.77;;
12511;SDS011;6321;53.798;10.382;2023-06-10T05:11:10;10.67;;;3.10;;
12511;SDS011;6321;53.798;10.382;2023-06-10T05:13:36;8.70;;;2.53;;
12511;SDS011;6321;53.798;10.382;2023-06-10T05:16:02;7.40;;;2.93;;
12511;SDS011;6321;53.798;10.382;2023-06-10T05:18:28;6.03;;;2.73;;
12511;SDS011;6321;53.798;10.382;2023-06-10T05:20:54;8.53;;;2.37;;
12511;SDS011;6321;53.798;10.382;2023-06-10T05:23:20;6.50;;;2.50;;
12511;SDS011;6321;53.798;10.382;2023-06-10T05:25:46;6.23;;;2.77;;
12511;SDS011;6321;53.798;10.382;2023-06-10T05:28:12;4.73;;;2.17;;
12511;SDS011;6321;53.798;10.382;2023-06-10T05:30:38;7.30;;;2.93;;
12511;SDS011;6321;53.798;10.382;2023-06-10T05:33:04;7.50;;;2.80;;
12511;SDS011;6321;53.798;10.382;2023-06-10T05:35:30;5.53;;;2.67;;
12511;SDS011;6321;53.798;10.382;2023-06-10T05:37:56;3.97;;;2.30;;
12511;SDS011;6321;53.798;10.382;2023-06-10T05:40:22;9.57;;;3.10;;
12511;SDS011;6321;53.798;10.382;2023-06-10T05:42:48;5.10;;;2.40;;
12511;SDS011;6321;53.798;10.382;2023-06-10T05:45:14;5.10;;;2.30;;
12511;SDS011;6321;53.798;10.382;2023-06-10T05:47:41;8.70;;;2.50;;
12511;SDS011;6321;53.798;10.382;2023-06-10T05:50:07;8.83;;;2.83;;
12511;SDS011;6321;53.798;10.382;2023-06-10T05:52:34;4.23;;;2.53;;
12511;SDS011;6321;53.798;10.382;2023-06-10T05:55:00;6.27;;;2.60;;
12511;SDS011;6321;53.798;10.382;2023-06-10T05:57:26;6.13;;;2.60;;
12511;SDS011;6321;53.798;10.382;2023-06-10T05:59:52;6.30;;;2.93;;
12511;SDS011;6321;53.798;10.382;2023-06-10T06:02:17;7.47;;;2.40;;
12511;SDS011;6321;53.798;10.382;2023-06-10T06:04:43;5.70;;;2.63;;
12511;SDS011;6321;53.798;10.382;2023-06-10T06:07:09;9.87;;;3.40;;
12511;SDS011;6321;53.798;10.382;2023-06-10T06:09:35;6.13;;;3.03;;
12511;SDS011;6321;53.798;10.382;2023-06-10T06:12:01;5.90;;;2.83;;
12511;SDS011;6321;53.798;10.382;2023-06-10T06:14:30;7.80;;;3.10;;
12511;SDS011;6321;53.798;10.382;2023-06-10T06:17:00;5.37;;;2.80;;
12511;SDS011;6321;53.798;10.382;2023-06-10T06:19:25;8.20;;;2.77;;
12511;SDS011;6321;53.798;10.382;2023-06-10T06:21:51;7.03;;;2.47;;
12511;SDS011;6321;53.798;10.382;2023-06-10T06:24:17;6.10;;;4.00;;
12511;SDS011;6321;53.798;10.382;2023-06-10T06:26:43;6.77;;;3.50;;
12511;SDS011;6321;53.798;10.382;2023-06-10T06:29:10;7.73;;;3.03;;
12511;SDS011;6321;53.798;10.382;2023-06-10T06:31:36;8.53;;;2.90;;
12511;SDS011;6321;53.798;10.382;2023-06-10T06:34:02;10.43;;;3.43;;
12511;SDS011;6321;53.798;10.382;2023-06-10T06:36:27;5.00;;;2.43;;
12511;SDS011;6321;53.798;10.382;2023-06-10T06:38:53;6.57;;;3.23;;
12511;SDS011;6321;53.798;10.382;2023-06-10T06:41:19;5.90;;;2.97;;
12511;SDS011;6321;53.798;10.382;2023-06-10T06:43:46;7.93;;;3.10;;
12511;SDS011;6321;53.798;10.382;2023-06-10T06:46:12;8.20;;;3.57;;
12511;SDS011;6321;53.798;10.382;2023-06-10T06:48:38;4.80;;;2.57;;
12511;SDS011;6321;53.798;10.382;2023-06-10T06:51:04;7.23;;;3.10;;
12511;SDS011;6321;53.798;10.382;2023-06-10T06:53:30;6.97;;;3.57;;
12511;SDS011;6321;53.798;10.382;2023-06-10T06:55:56;9.83;;;4.67;;
12511;SDS011;6321;53.798;10.382;2023-06-10T06:58:22;14.80;;;4.53;;
12511;SDS011;6321;53.798;10.382;2023-06-10T07:00:48;10.33;;;2.67;;
12511;SDS011;6321;53.798;10.382;2023-06-10T07:03:14;5.83;;;2.90;;
12511;SDS011;6321;53.798;10.382;2023-06-10T07:05:40;7.03;;;3.00;;
12511;SDS011;6321;53.798;10.382;2023-06-10T07:08:06;7.57;;;2.90;;
12511;SDS011;6321;53.798;10.382;2023-06-10T07:10:32;5.93;;;3.20;;
12511;SDS011;6321;53.798;10.382;2023-06-10T07:12:58;8.17;;;3.67;;
12511;SDS011;6321;53.798;10.382;2023-06-10T07:15:25;7.77;;;4.07;;
12511;SDS011;6321;53.798;10.382;2023-06-10T07:17:50;9.00;;;3.57;;
12511;SDS011;6321;53.798;10.382;2023-06-10T07:20:16;9.63;;;3.60;;
12511;SDS011;6321;53.798;10.382;2023-06-10T07:22:43;7.83;;;3.53;;
12511;SDS011;6321;53.798;10.382;2023-06-10T07:25:09;9.60;;;3.30;;
12511;SDS011;6321;53.798;10.382;2023-06-10T07:27:35;7.87;;;3.30;;
12511;SDS011;6321;53.798;10.382;2023-06-10T07:30:02;11.73;;;3.40;;
12511;SDS011;6321;53.798;10.382;2023-06-10T07:32:28;9.77;;;3.07;;
12511;SDS011;6321;53.798;10.382;2023-06-10T07:34:54;7.30;;;3.53;;
12511;SDS011;6321;53.798;10.382;2023-06-10T07:37:20;9.33;;;2.87;;
12511;SDS011;6321;53.798;10.382;2023-06-10T07:39:46;7.90;;;3.77;;
12511;SDS011;6321;53.798;10.382;2023-06-10T07:42:12;7.50;;;2.87;;
12511;SDS011;6321;53.798;10.382;2023-06-10T07:44:38;9.70;;;4.00;;
12511;SDS011;6321;53.798;10.382;2023-06-10T07:47:04;8.40;;;3.73;;
12511;SDS011;6321;53.798;10.382;2023-06-10T07:49:30;5.87;;;3.80;;
12511;SDS011;6321;53.798;10.382;2023-06-10T07:51:56;9.63;;;3.40;;
12511;SDS011;6321;53.798;10.382;2023-06-10T07:54:22;7.83;;;3.23;;
12511;SDS011;6321;53.798;10.382;2023-06-10T07:56:48;4.93;;;3.23;;
12511;SDS011;6321;53.798;10.382;2023-06-10T07:59:16;8.90;;;3.17;;
12511;SDS011;6321;53.798;10.382;2023-06-10T08:01:42;6.37;;;3.20;;
12511;SDS011;6321;53.798;10.382;2023-06-10T08:04:08;7.33;;;3.07;;
12511;SDS011;6321;53.798;10.382;2023-06-10T08:06:34;6.90;;;3.30;;
12511;SDS011;6321;53.798;10.382;2023-06-10T08:09:01;7.07;;;3.27;;
12511;SDS011;6321;53.798;10.382;2023-06-10T08:11:27;8.90;;;3.23;;
12511;SDS011;6321;53.798;10.382;2023-06-10T08:13:54;9.83;;;4.20;;
12511;SDS011;6321;53.798;10.382;2023-06-10T08:16:20;5.70;;;3.23;;
12511;SDS011;6321;53.798;10.382;2023-06-10T08:18:46;7.07;;;3.23;;
12511;SDS011;6321;53.798;10.382;2023-06-10T08:21:12;10.60;;;3.50;;
12511;SDS011;6321;53.798;10.382;2023-06-10T08:23:38;9.00;;;3.50;;
12511;SDS011;6321;53.798;10.382;2023-06-10T08:26:04;8.77;;;4.00;;
12511;SDS011;6321;53.798;10.382;2023-06-10T08:28:30;7.37;;;3.13;;
12511;SDS011;6321;53.798;10.382;2023-06-10T08:30:56;6.97;;;3.07;;
12511;SDS011;6321;53.798;10.382;2023-06-10T08:33:22;5.27;;;3.23;;
12511;SDS011;6321;53.798;10.382;2023-06-10T08:35:48;9.07;;;3.90;;
12511;SDS011;6321;53.798;10.382;2023-06-10T08:38:13;6.17;;;3.37;;
12511;SDS011;6321;53.798;10.382;2023-06-10T08:40:41;14.23;;;3.80;;
12511;SDS011;6321;53.798;10.382;2023-06-10T08:43:07;9.00;;;3.77;;
12511;SDS011;6321;53.798;10.382;2023-06-10T08:45:37;10.83;;;3.73;;
12511;SDS011;6321;53.798;10.382;2023-06-10T08:48:03;9.07;;;3.57;;
12511;SDS011;6321;53.798;10.382;2023-06-10T08:50:32;8.80;;;4.07;;
12511;SDS011;6321;53.798;10.382;2023-06-10T08:53:00;10.03;;;4.30;;
12511;SDS011;6321;53.798;10.382;2023-06-10T08:55:30;6.70;;;3.83;;
12511;SDS011;6321;53.798;10.382;2023-06-10T08:57:58;8.07;;;4.20;;
12511;SDS011;6321;53.798;10.382;2023-06-10T09:00:24;5.93;;;3.67;;
12511;SDS011;6321;53.798;10.382;2023-06-10T09:02:50;8.30;;;3.80;;
12511;SDS011;6321;53.798;10.382;2023-06-10T09:05:17;8.40;;;3.73;;
12511;SDS011;6321;53.798;10.382;2023-06-10T09:07:43;7.83;;;4.33;;
12511;SDS011;6321;53.798;10.382;2023-06-10T09:10:09;9.80;;;5.83;;
12511;SDS011;6321;53.798;10.382;2023-06-10T09:12:35;8.60;;;4.17;;
12511;SDS011;6321;53.798;10.382;2023-06-10T09:15:03;11.37;;;4.60;;
12511;SDS011;6321;53.798;10.382;2023-06-10T09:17:29;7.30;;;3.80;;
12511;SDS011;6321;53.798;10.382;2023-06-10T09:19:55;8.47;;;3.60;;
12511;SDS011;6321;53.798;10.382;2023-06-10T09:22:22;5.63;;;3.37;;
12511;SDS011;6321;53.798;10.382;2023-06-10T09:24:48;9.17;;;3.80;;
12511;SDS011;6321;53.798;10.382;2023-06-10T09:27:14;7.40;;;3.63;;
12511;SDS011;6321;53.798;10.382;2023-06-10T09:29:53;7.90;;;4.23;;
12511;SDS011;6321;53.798;10.382;2023-06-10T09:32:20;5.57;;;3.60;;
12511;SDS011;6321;53.798;10.382;2023-06-10T09:34:47;8.43;;;3.90;;
12511;SDS011;6321;53.798;10.382;2023-06-10T09:37:13;7.10;;;3.63;;
12511;SDS011;6321;53.798;10.382;2023-06-10T09:39:45;9.77;;;3.80;;
12511;SDS011;6321;53.798;10.382;2023-06-10T09:42:26;9.27;;;3.70;;
12511;SDS011;6321;53.798;10.382;2023-06-10T09:44:51;8.27;;;4.73;;
12511;SDS011;6321;53.798;10.382;2023-06-10T09:47:21;9.37;;;3.43;;
12511;SDS011;6321;53.798;10.382;2023-06-10T09:49:48;8.87;;;3.70;;
12511;SDS011;6321;53.798;10.382;2023-06-10T09:52:14;7.90;;;4.10;;
12511;SDS011;6321;53.798;10.382;2023-06-10T09:54:46;10.27;;;3.97;;
12511;SDS011;6321;53.798;10.382;2023-06-10T09:57:12;7.50;;;3.70;;
12511;SDS011;6321;53.798;10.382;2023-06-10T09:59:39;5.17;;;3.10;;
12511;SDS011;6321;53.798;10.382;2023-06-10T10:02:05;11.27;;;4.27;;
12511;SDS011;6321;53.798;10.382;2023-06-10T10:04:31;8.23;;;4.20;;
12511;SDS011;6321;53.798;10.382;2023-06-10T10:06:57;8.37;;;4.23;;
12511;SDS011;6321;53.798;10.382;2023-06-10T10:09:24;9.03;;;3.30;;
12511;SDS011;6321;53.798;10.382;2023-06-10T10:11:50;9.60;;;3.80;;
12511;SDS011;6321;53.798;10.382;2023-06-10T10:14:17;10.50;;;4.03;;
12511;SDS011;6321;53.798;10.382;2023-06-10T10:16:44;7.43;;;4.00;;
12511;SDS011;6321;53.798;10.382;2023-06-10T10:19:12;11.57;;;4.23;;
12511;SDS011;6321;53.798;10.382;2023-06-10T10:21:47;9.07;;;3.90;;
12511;SDS011;6321;53.798;10.382;2023-06-10T10:24:16;8.33;;;3.53;;
12511;SDS011;6321;53.798;10.382;2023-06-10T10:26:43;7.87;;;3.70;;
12511;SDS011;6321;53.798;10.382;2023-06-10T10:29:16;8.47;;;4.17;;
12511;SDS011;6321;53.798;10.382;2023-06-10T10:31:46;9.37;;;3.57;;
12511;SDS011;6321;53.798;10.382;2023-06-10T10:34:19;10.60;;;6.13;;
12511;SDS011;6321;53.798;10.382;2023-06-10T10:36:47;8.50;;;3.77;;
12511;SDS011;6321;53.798;10.382;2023-06-10T10:39:14;7.87;;;3.80;;
12511;SDS011;6321;53.798;10.382;2023-06-10T10:41:40;9.23;;;3.63;;
12511;SDS011;6321;53.798;10.382;2023-06-10T10:44:07;8.60;;;3.90;;
12511;SDS011;6321;53.798;10.382;2023-06-10T10:46:49;6.50;;;3.40;;
12511;SDS011;6321;53.798;10.382;2023-06-10T10:49:16;8.07;;;3.70;;
12511;SDS011;6321;53.798;10.382;2023-06-10T10:51:58;7.23;;;3.83;;
12511;SDS011;6321;53.798;10.382;2023-06-10T10:54:28;7.70;;;4.03;;
12511;SDS011;6321;53.798;10.382;2023-06-10T11:02:15;9.53;;;4.10;;
12511;SDS011;6321;53.798;10.382;2023-06-10T11:04:46;8.63;;;3.80;;
12511;SDS011;6321;53.798;10.382;2023-06-10T11:07:12;8.37;;;3.50;;
12511;SDS011;6321;53.798;10.382;2023-06-10T11:09:44;9.03;;;3.70;;
12511;SDS011;6321;53.798;10.382;2023-06-10T11:12:23;8.83;;;3.60;;
12511;SDS011;6321;53.798;10.382;2023-06-10T11:14:53;11.47;;;4.23;;
12511;SDS011;6321;53.798;10.382;2023-06-10T11:17:20;7.53;;;3.30;;
12511;SDS011;6321;53.798;10.382;2023-06-10T11:19:46;6.70;;;2.93;;
12511;SDS011;6321;53.798;10.382;2023-06-10T11:22:16;8.23;;;3.60;;
12511;SDS011;6321;53.798;10.382;2023-06-10T11:24:49;10.43;;;3.87;;
12511;SDS011;6321;53.798;10.382;2023-06-10T11:27:19;8.93;;;4.20;;
12511;SDS011;6321;53.798;10.382;2023-06-10T11:29:58;8.90;;;3.57;;
12511;SDS011;6321;53.798;10.382;2023-06-10T11:32:31;7.37;;;3.70;;
12511;SDS011;6321;53.798;10.382;2023-06-10T11:34:58;8.27;;;3.67;;
12511;SDS011;6321;53.798;10.382;2023-06-10T11:37:24;7.87;;;3.70;;
12511;SDS011;6321;53.798;10.382;2023-06-10T11:39:53;9.70;;;4.83;;
12511;SDS011;6321;53.798;10.382;2023-06-10T11:42:19;8.00;;;4.10;;
12511;SDS011;6321;53.798;10.382;2023-06-10T11:44:52;8.90;;;3.97;;
12511;SDS011;6321;53.798;10.382;2023-06-10T11:47:18;5.57;;;3.70;;
12511;SDS011;6321;53.798;10.382;2023-06-10T11:49:45;7.17;;;3.77;;
12511;SDS011;6321;53.798;10.382;2023-06-10T11:52:11;6.43;;;3.40;;
12511;SDS011;6321;53.798;10.382;2023-06-10T11:54:37;8.47;;;3.70;;
12511;SDS011;6321;53.798;10.382;2023-06-10T11:57:03;9.00;;;3.53;;
12511;SDS011;6321;53.798;10.382;2023-06-10T11:59:30;6.23;;;3.70;;
12511;SDS011;6321;53.798;10.382;2023-06-10T12:01:56;12.57;;;3.97;;
12511;SDS011;6321;53.798;10.382;2023-06-10T12:04:22;6.93;;;3.83;;
12511;SDS011;6321;53.798;10.382;2023-06-10T12:06:49;9.33;;;3.83;;
12511;SDS011;6321;53.798;10.382;2023-06-10T12:09:28;9.13;;;3.17;;
12511;SDS011;6321;53.798;10.382;2023-06-10T12:11:55;10.47;;;3.80;;
12511;SDS011;6321;53.798;10.382;2023-06-10T12:17:07;7.40;;;3.57;;
12511;SDS011;6321;53.798;10.382;2023-06-10T12:19:37;7.10;;;3.90;;
12511;SDS011;6321;53.798;10.382;2023-06-10T12:22:04;9.03;;;3.60;;
12511;SDS011;6321;53.798;10.382;2023-06-10T12:24:30;6.50;;;3.67;;
12511;SDS011;6321;53.798;10.382;2023-06-10T12:26:56;5.83;;;3.20;;
12511;SDS011;6321;53.798;10.382;2023-06-10T12:29:22;9.87;;;3.20;;
12511;SDS011;6321;53.798;10.382;2023-06-10T12:31:55;8.87;;;3.77;;
12511;SDS011;6321;53.798;10.382;2023-06-10T12:34:42;7.57;;;3.50;;
12511;SDS011;6321;53.798;10.382;2023-06-10T12:37:10;8.67;;;3.40;;
12511;SDS011;6321;53.798;10.382;2023-06-10T12:39:40;8.87;;;3.30;;
12511;SDS011;6321;53.798;10.382;2023-06-10T12:42:08;6.20;;;3.30;;
12511;SDS011;6321;53.798;10.382;2023-06-10T12:44:35;9.90;;;4.03;;
12511;SDS011;6321;53.798;10.382;2023-06-10T12:47:06;12.47;;;3.67;;
12511;SDS011;6321;53.798;10.382;2023-06-10T12:49:33;9.77;;;3.23;;
12511;SDS011;6321;53.798;10.382;2023-06-10T12:52:00;6.10;;;3.43;;
12511;SDS011;6321;53.798;10.382;2023-06-10T12:54:26;9.43;;;4.30;;
12511;SDS011;6321;53.798;10.382;2023-06-10T12:56:52;9.10;;;3.43;;
12511;SDS011;6321;53.798;10.382;2023-06-10T12:59:18;6.60;;;3.77;;
12511;SDS011;6321;53.798;10.382;2023-06-10T13:01:44;8.20;;;3.57;;
12511;SDS011;6321;53.798;10.382;2023-06-10T13:04:16;11.23;;;3.80;;
12511;SDS011;6321;53.798;10.382;2023-06-10T13:06:43;11.67;;;4.20;;
12511;SDS011;6321;53.798;10.382;2023-06-10T13:09:09;10.97;;;4.60;;
12511;SDS011;6321;53.798;10.382;2023-06-10T13:11:35;7.77;;;3.77;;
12511;SDS011;6321;53.798;10.382;2023-06-10T13:14:02;8.37;;;3.40;;
12511;SDS011;6321;53.798;10.382;2023-06-10T13:16:29;5.67;;;3.53;;
12511;SDS011;6321;53.798;10.382;2023-06-10T13:18:55;8.80;;;3.80;;
12511;SDS011;6321;53.798;10.382;2023-06-10T13:21:21;11.23;;;3.80;;
12511;SDS011;6321;53.798;10.382;2023-06-10T13:23:47;8.13;;;3.70;;
12511;SDS011;6321;53.798;10.382;2023-06-10T13:26:13;9.13;;;3.40;;
12511;SDS011;6321;53.798;10.382;2023-06-10T13:28:41;8.20;;;3.63;;
12511;SDS011;6321;53.798;10.382;2023-06-10T13:31:07;8.20;;;3.53;;
12511;SDS011;6321;53.798;10.382;2023-06-10T13:33:33;7.53;;;3.40;;
12511;SDS011;6321;53.798;10.382;2023-06-10T13:35:59;7.93;;;3.47;;
12511;SDS011;6321;53.798;10.382;2023-06-10T13:38:24;8.87;;;3.43;;
12511;SDS011;6321;53.798;10.382;2023-06-10T13:40:50;5.27;;;3.50;;
12511;SDS011;6321;53.798;10.382;2023-06-10T13:43:16;7.83;;;3.77;;
12511;SDS011;6321;53.798;10.382;2023-06-10T13:45:42;7.40;;;3.53;;
12511;SDS011;6321;53.798;10.382;2023-06-10T13:48:09;5.93;;;3.50;;
12511;SDS011;6321;53.798;10.382;2023-06-10T13:50:35;9.47;;;3.73;;
12511;SDS011;6321;53.798;10.382;2023-06-10T13:53:01;8.00;;;4.03;;
12511;SDS011;6321;53.798;10.382;2023-06-10T13:55:27;7.60;;;3.77;;
12511;SDS011;6321;53.798;10.382;2023-06-10T13:57:53;6.90;;;3.67;;
12511;SDS011;6321;53.798;10.382;2023-06-10T14:00:19;5.13;;;2.83;;
12511;SDS011;6321;53.798;10.382;2023-06-10T14:02:45;6.20;;;3.50;;
12511;SDS011;6321;53.798;10.382;2023-06-10T14:05:11;5.47;;;3.57;;
12511;SDS011;6321;53.798;10.382;2023-06-10T14:07:37;9.00;;;3.80;;
12511;SDS011;6321;53.798;10.382;2023-06-10T14:10:04;8.37;;;3.57;;
12511;SDS011;6321;53.798;10.382;2023-06-10T14:12:30;9.17;;;3.53;;
12511;SDS011;6321;53.798;10.382;2023-06-10T14:14:56;7.53;;;3.20;;
12511;SDS011;6321;53.798;10.382;2023-06-10T14:17:22;8.43;;;3.90;;
12511;SDS011;6321;53.798;10.382;2023-06-10T14:19:48;9.60;;;3.57;;
12511;SDS011;6321;53.798;10.382;2023-06-10T14:22:14;7.90;;;3.70;;
12511;SDS011;6321;53.798;10.382;2023-06-10T14:24:40;8.53;;;3.47;;
12511;SDS011;6321;53.798;10.382;2023-06-10T14:27:06;7.20;;;3.50;;
12511;SDS011;6321;53.798;10.382;2023-06-10T14:29:32;6.07;;;3.17;;
12511;SDS011;6321;53.798;10.382;2023-06-10T14:31:58;6.93;;;3.30;;
12511;SDS011;6321;53.798;10.382;2023-06-10T14:34:24;8.27;;;3.80;;
12511;SDS011;6321;53.798;10.382;2023-06-10T14:36:58;8.73;;;3.40;;
12511;SDS011;6321;53.798;10.382;2023-06-10T14:39:24;9.00;;;3.57;;
12511;SDS011;6321;53.798;10.382;2023-06-10T14:41:50;6.97;;;3.33;;
12511;SDS011;6321;53.798;10.382;2023-06-10T14:44:19;8.13;;;3.50;;
12511;SDS011;6321;53.798;10.382;2023-06-10T14:46:45;7.23;;;3.87;;
12511;SDS011;6321;53.798;10.382;2023-06-10T14:49:11;8.17;;;3.10;;
12511;SDS011;6321;53.798;10.382;2023-06-10T14:51:37;7.33;;;3.50;;
12511;SDS011;6321;53.798;10.382;2023-06-10T14:54:03;7.53;;;3.27;;